createdAt,value
2022-09-23T00:00:53.131Z,1025.48
2022-09-23T00:01:53.204Z,1025.4
2022-09-23T00:02:53.195Z,1025.46
2022-09-23T00:03:53.138Z,1025.5
2022-09-23T00:04:53.142Z,1025.48
2022-09-23T00:05:53.144Z,1025.49
2022-09-23T00:06:53.161Z,1025.45
2022-09-23T00:07:53.149Z,1008.44
2022-09-23T00:08:53.158Z,1025.41
2022-09-23T00:09:53.260Z,1025.44
2022-09-23T00:10:53.136Z,1008.45
2022-09-23T00:11:53.152Z,1025.51
2022-09-23T00:12:53.138Z,1025.48
2022-09-23T00:13:53.140Z,1025.56
2022-09-23T00:14:53.139Z,1025.54
2022-09-23T00:15:53.142Z,1025.55
2022-09-23T00:16:53.408Z,1008.53
2022-09-23T00:17:53.158Z,1025.59
2022-09-23T00:18:53.137Z,1025.62
2022-09-23T00:19:53.135Z,1025.59
2022-09-23T00:20:53.137Z,1025.56
2022-09-23T00:21:53.145Z,1025.55
2022-09-23T00:22:53.137Z,1025.54
2022-09-23T00:23:53.138Z,1025.56
2022-09-23T00:24:53.143Z,1025.51
2022-09-23T00:25:53.128Z,1025.47
2022-09-23T00:26:53.158Z,1025.45
2022-09-23T00:27:53.125Z,1025.49
2022-09-23T00:28:53.121Z,1025.45
2022-09-23T00:29:53.126Z,1025.39
2022-09-23T00:30:53.205Z,1025.41
2022-09-23T00:31:53.146Z,1025.5
2022-09-23T00:32:53.161Z,1025.44
2022-09-23T00:33:53.155Z,1025.47
2022-09-23T00:34:53.123Z,1025.41
2022-09-23T00:35:53.123Z,1025.4
2022-09-23T00:36:53.162Z,1025.43
2022-09-23T00:37:53.120Z,1025.39
2022-09-23T00:38:53.120Z,1025.35
2022-09-23T00:39:53.187Z,1025.35
2022-09-23T00:40:53.141Z,1025.39
2022-09-23T00:41:53.140Z,1025.36
2022-09-23T00:42:53.137Z,1025.35
2022-09-23T00:43:53.138Z,1025.36
2022-09-23T00:44:53.149Z,1025.38
2022-09-23T00:45:53.168Z,1025.38
2022-09-23T00:46:53.155Z,1025.35
2022-09-23T00:47:53.162Z,1025.31
2022-09-23T00:48:53.131Z,1025.3
2022-09-23T00:49:53.144Z,1025.24
2022-09-23T00:50:53.132Z,1025.25
2022-09-23T00:51:53.147Z,1025.23
2022-09-23T00:52:53.143Z,1025.22
2022-09-23T00:53:53.139Z,1025.21
2022-09-23T00:54:53.155Z,1025.17
2022-09-23T00:55:53.138Z,1025.17
2022-09-23T00:56:53.158Z,1025.21
2022-09-23T00:57:53.146Z,1025.21
2022-09-23T00:58:53.142Z,1025.22
2022-09-23T00:59:53.142Z,1025.15
2022-09-23T01:00:53.219Z,1025.24
2022-09-23T01:01:53.153Z,1025.21
2022-09-23T01:02:53.286Z,1025.15
2022-09-23T01:03:53.135Z,1025.15
2022-09-23T01:04:53.138Z,1025.14
2022-09-23T01:05:53.138Z,1025.1
2022-09-23T01:06:53.166Z,1025.14
2022-09-23T01:07:53.147Z,1025.13
2022-09-23T01:08:53.136Z,1025.07
2022-09-23T01:09:53.134Z,1025.13
2022-09-23T01:10:53.141Z,1025.08
2022-09-23T01:11:53.141Z,1025.11
2022-09-23T01:12:53.135Z,1025.1
2022-09-23T01:13:53.171Z,1025.13
2022-09-23T01:14:53.143Z,1025.13
2022-09-23T01:15:53.205Z,1025.06
2022-09-23T01:16:53.221Z,1025.08
2022-09-23T01:17:53.168Z,1025.06
2022-09-23T01:18:53.151Z,1025.06
2022-09-23T01:19:53.136Z,1008.01
2022-09-23T01:20:53.130Z,1025.05
2022-09-23T01:21:53.145Z,1025.06
2022-09-23T01:22:53.201Z,1025.04
2022-09-23T01:23:53.209Z,1025.1
2022-09-23T01:24:53.143Z,1025.04
2022-09-23T01:25:53.142Z,1025.05
2022-09-23T01:26:53.153Z,1025.04
2022-09-23T01:27:53.143Z,1025.01
2022-09-23T01:28:53.134Z,1025.08
2022-09-23T01:29:53.162Z,1025.05
2022-09-23T01:30:53.143Z,1025.02
2022-09-23T01:31:53.144Z,1025.05
2022-09-23T01:32:53.159Z,1025.01
2022-09-23T01:33:53.291Z,1024.99
2022-09-23T01:34:53.122Z,1025.01
2022-09-23T01:35:53.128Z,1025.08
2022-09-23T01:36:53.136Z,1025.05
2022-09-23T01:37:53.121Z,1025.12
2022-09-23T01:38:53.130Z,1025.09
2022-09-23T01:39:53.120Z,1025.08
2022-09-23T01:40:53.121Z,1025.04
2022-09-23T01:41:53.130Z,1025.03
2022-09-23T01:42:53.126Z,1024.98
2022-09-23T01:43:53.135Z,1024.99
2022-09-23T01:44:53.123Z,1024.99
2022-09-23T01:45:53.128Z,1007.85
2022-09-23T01:46:53.225Z,1024.98
2022-09-23T01:47:53.222Z,1025.05
2022-09-23T01:48:53.129Z,1024.95
2022-09-23T01:49:53.144Z,1024.98
2022-09-23T01:50:53.134Z,1024.98
2022-09-23T01:51:53.141Z,1025.02
2022-09-23T01:52:53.136Z,1025.01
2022-09-23T01:53:53.131Z,1025.06
2022-09-23T01:55:53.138Z,1024.99
2022-09-23T01:56:53.151Z,1024.99
2022-09-23T01:57:53.143Z,1024.96
2022-09-23T01:58:53.130Z,1024.99
2022-09-23T01:59:53.135Z,1025.01
2022-09-23T02:00:53.168Z,1025.02
2022-09-23T02:01:53.132Z,1025
2022-09-23T02:02:53.291Z,1024.98
2022-09-23T02:03:53.136Z,1025.02
2022-09-23T02:04:53.136Z,1024.98
2022-09-23T02:05:53.180Z,1024.95
2022-09-23T02:06:53.134Z,1024.91
2022-09-23T02:10:53.139Z,1024.9
2022-09-23T02:11:53.139Z,1024.89
2022-09-23T02:12:53.143Z,1024.9
2022-09-23T02:13:53.131Z,1024.89
2022-09-23T02:14:53.130Z,1024.86
2022-09-23T02:15:53.157Z,1024.9
2022-09-23T02:16:53.214Z,1024.87
2022-09-23T02:17:53.138Z,1024.88
2022-09-23T02:18:53.137Z,1024.9
2022-09-23T02:19:53.131Z,1024.86
2022-09-23T02:20:53.120Z,1024.89
2022-09-23T02:21:53.140Z,1024.86
2022-09-23T02:22:53.136Z,1024.86
2022-09-23T02:23:53.129Z,1024.88
2022-09-23T02:24:53.138Z,1024.88
2022-09-23T02:25:53.123Z,1024.88
2022-09-23T02:26:53.135Z,1024.89
2022-09-23T02:27:53.136Z,1024.88
2022-09-23T02:28:53.128Z,1024.84
2022-09-23T02:29:53.143Z,1024.82
2022-09-23T02:30:53.119Z,1024.92
2022-09-23T02:31:53.201Z,1024.84
2022-09-23T02:32:53.131Z,1024.85
2022-09-23T02:33:53.134Z,1024.83
2022-09-23T02:34:53.125Z,1024.8
2022-09-23T02:35:53.123Z,1024.79
2022-09-23T02:36:53.149Z,1024.82
2022-09-23T02:37:53.130Z,1024.88
2022-09-23T02:38:53.135Z,1024.86
2022-09-23T02:39:53.126Z,1024.82
2022-09-23T02:40:53.184Z,1024.92
2022-09-23T02:41:53.240Z,1024.86
2022-09-23T02:42:53.180Z,1024.86
2022-09-23T02:43:53.126Z,1024.85
2022-09-23T02:44:53.208Z,1024.87
2022-09-23T02:45:53.170Z,1024.84
2022-09-23T02:46:53.277Z,1024.85
2022-09-23T02:47:53.146Z,1024.81
2022-09-23T02:48:53.112Z,1024.81
2022-09-23T02:49:53.184Z,1024.91
2022-09-23T02:50:53.118Z,1024.84
2022-09-23T02:51:53.158Z,1024.87
2022-09-23T02:52:53.284Z,1024.79
2022-09-23T02:53:53.118Z,1024.79
2022-09-23T02:54:53.122Z,1024.77
2022-09-23T02:55:53.126Z,1024.73
2022-09-23T02:56:53.145Z,1024.73
2022-09-23T02:57:53.119Z,1024.73
2022-09-23T02:58:53.119Z,1024.76
2022-09-23T02:59:53.117Z,1024.75
2022-09-23T03:00:53.143Z,1024.74
2022-09-23T03:01:53.252Z,1024.73
2022-09-23T03:02:53.129Z,1024.7
2022-09-23T03:03:53.129Z,1024.73
2022-09-23T03:04:53.136Z,1024.81
2022-09-23T03:05:53.140Z,1024.76
2022-09-23T03:06:53.152Z,1024.73
2022-09-23T03:07:53.183Z,1024.67
2022-09-23T03:08:53.131Z,1024.69
2022-09-23T03:09:53.127Z,1024.75
2022-09-23T03:10:53.131Z,1024.76
2022-09-23T03:11:53.150Z,1024.71
2022-09-23T03:12:53.128Z,1024.73
2022-09-23T03:13:53.147Z,1024.66
2022-09-23T03:14:53.133Z,1024.67
2022-09-23T03:15:53.138Z,1024.66
2022-09-23T03:16:53.409Z,1024.66
2022-09-23T03:17:53.139Z,1024.67
2022-09-23T03:18:53.138Z,1024.65
2022-09-23T03:19:53.128Z,1024.59
2022-09-23T03:20:53.136Z,1024.6
2022-09-23T03:21:53.139Z,1024.59
2022-09-23T03:22:53.134Z,1024.58
2022-09-23T03:23:53.125Z,1024.59
2022-09-23T03:24:54.191Z,1024.58
2022-09-23T03:25:53.132Z,1024.62
2022-09-23T03:26:53.142Z,1024.66
2022-09-23T03:27:53.137Z,1024.7
2022-09-23T03:28:53.136Z,1024.68
2022-09-23T03:29:53.130Z,1024.63
2022-09-23T03:30:53.117Z,1024.66
2022-09-23T03:31:53.249Z,1024.64
2022-09-23T03:32:53.133Z,1024.68
2022-09-23T03:33:53.128Z,1024.67
2022-09-23T03:34:53.131Z,1007.39
2022-09-23T03:35:53.140Z,1024.62
2022-09-23T03:36:53.156Z,1024.58
2022-09-23T03:37:53.130Z,1024.58
2022-09-23T03:38:53.140Z,1024.59
2022-09-23T03:39:53.119Z,1024.56
2022-09-23T03:40:53.192Z,1024.54
2022-09-23T03:41:53.158Z,1024.53
2022-09-23T03:42:53.132Z,1024.53
2022-09-23T03:43:53.133Z,1024.46
2022-09-23T03:44:53.125Z,1024.45
2022-09-23T03:45:53.148Z,1024.43
2022-09-23T03:46:53.145Z,1024.43
2022-09-23T03:47:53.132Z,1024.37
2022-09-23T03:48:53.135Z,1024.39
2022-09-23T03:49:53.133Z,1024.39
2022-09-23T03:50:53.126Z,1024.39
2022-09-23T03:51:53.172Z,1024.41
2022-09-23T03:52:53.139Z,1024.33
2022-09-23T03:53:53.131Z,1024.37
2022-09-23T03:54:53.122Z,1024.32
2022-09-23T03:55:53.116Z,1024.36
2022-09-23T03:56:53.149Z,1024.37
2022-09-23T03:57:53.118Z,1024.36
2022-09-23T03:58:53.121Z,1024.31
2022-09-23T03:59:53.113Z,1024.39
2022-09-23T04:00:53.175Z,1024.35
2022-09-23T04:01:53.226Z,1024.31
2022-09-23T04:02:53.118Z,1024.32
2022-09-23T04:03:53.125Z,1024.36
2022-09-23T04:04:53.118Z,1024.34
2022-09-23T04:05:53.115Z,1024.32
2022-09-23T04:06:53.134Z,1024.32
2022-09-23T04:07:53.118Z,1024.31
2022-09-23T04:08:53.124Z,1024.32
2022-09-23T04:09:53.133Z,1024.31
2022-09-23T04:10:54.981Z,1024.35
2022-09-23T04:11:53.151Z,1024.38
2022-09-23T04:12:53.143Z,1024.38
2022-09-23T04:13:53.127Z,1024.34
2022-09-23T04:14:53.135Z,1024.34
2022-09-23T04:15:53.136Z,1024.36
2022-09-23T04:16:53.321Z,1024.33
2022-09-23T04:17:53.128Z,1024.37
2022-09-23T04:18:53.123Z,1024.41
2022-09-23T04:19:53.127Z,1024.38
2022-09-23T04:20:53.125Z,1024.35
2022-09-23T04:21:53.156Z,1024.32
2022-09-23T04:22:53.129Z,1024.32
2022-09-23T04:23:53.131Z,1007.06
2022-09-23T04:24:53.129Z,1024.31
2022-09-23T04:25:53.131Z,1024.27
2022-09-23T04:26:53.151Z,1024.28
2022-09-23T04:27:53.137Z,1024.26
2022-09-23T04:28:53.132Z,1024.24
2022-09-23T04:29:53.131Z,1024.2
2022-09-23T04:30:53.135Z,1024.24
2022-09-23T04:31:53.185Z,1024.23
2022-09-23T04:32:53.133Z,1024.25
2022-09-23T04:33:53.132Z,1024.24
2022-09-23T04:34:53.135Z,1024.17
2022-09-23T04:35:53.134Z,1024.24
2022-09-23T04:36:53.142Z,1024.25
2022-09-23T04:37:53.126Z,1024.21
2022-09-23T04:38:53.127Z,1024.28
2022-09-23T04:39:53.125Z,1024.21
2022-09-23T04:40:53.168Z,1024.2
2022-09-23T04:41:53.148Z,1024.2
2022-09-23T04:42:53.129Z,1024.2
2022-09-23T04:43:53.122Z,1024.21
2022-09-23T04:44:53.122Z,1024.23
2022-09-23T04:45:53.135Z,1024.29
2022-09-23T04:46:53.196Z,1024.24
2022-09-23T04:47:53.136Z,1024.25
2022-09-23T04:48:53.202Z,1024.26
2022-09-23T04:49:55.581Z,1024.27
2022-09-23T04:50:53.121Z,1024.29
2022-09-23T04:51:53.144Z,1024.33
2022-09-23T04:52:53.127Z,1024.29
2022-09-23T04:53:53.129Z,1024.22
2022-09-23T04:54:53.129Z,1024.22
2022-09-23T04:55:53.127Z,1024.25
2022-09-23T04:56:53.141Z,1024.28
2022-09-23T04:57:53.127Z,1024.23
2022-09-23T04:58:53.133Z,1024.28
2022-09-23T04:59:53.120Z,1024.29
2022-09-23T05:00:53.183Z,1024.26
2022-09-23T05:01:53.231Z,1024.25
2022-09-23T05:02:53.130Z,1024.22
2022-09-23T05:03:53.132Z,1024.23
2022-09-23T05:04:53.128Z,1024.23
2022-09-23T05:05:53.122Z,1024.19
2022-09-23T05:06:53.149Z,1024.21
2022-09-23T05:07:53.119Z,1024.21
2022-09-23T05:08:53.112Z,1024.25
2022-09-23T05:09:53.118Z,1024.2
2022-09-23T05:10:53.114Z,1024.25
2022-09-23T05:11:53.157Z,1024.23
2022-09-23T05:12:57.035Z,1024.25
2022-09-23T05:13:53.118Z,1024.19
2022-09-23T05:14:53.123Z,1024.23
2022-09-23T05:15:53.165Z,1024.2
2022-09-23T05:16:53.296Z,1024.17
2022-09-23T05:17:53.282Z,1024.16
2022-09-23T05:18:53.120Z,1024.15
2022-09-23T05:19:53.124Z,1024.12
2022-09-23T05:20:53.133Z,1024.11
2022-09-23T05:21:53.125Z,1024.07
2022-09-23T05:22:53.132Z,1024.11
2022-09-23T05:23:53.129Z,1024.08
2022-09-23T05:24:53.129Z,1024.07
2022-09-23T05:25:53.121Z,1024.07
2022-09-23T05:26:53.153Z,1024.15
2022-09-23T05:27:53.128Z,1024.05
2022-09-23T05:28:53.128Z,1024.12
2022-09-23T05:29:53.126Z,1024.14
2022-09-23T05:30:53.125Z,1024.07
2022-09-23T05:31:53.245Z,1024.06
2022-09-23T05:32:53.133Z,1024.11
2022-09-23T05:33:53.181Z,1024.05
2022-09-23T05:34:53.126Z,1024.08
2022-09-23T05:35:53.134Z,1024.02
2022-09-23T05:36:53.185Z,1024.03
2022-09-23T05:37:53.127Z,1024.05
2022-09-23T05:38:53.131Z,1024.06
2022-09-23T05:39:53.143Z,1024.02
2022-09-23T05:40:53.228Z,1024.02
2022-09-23T05:41:53.151Z,1024
2022-09-23T05:42:53.121Z,1024
2022-09-23T05:43:53.142Z,1024.02
2022-09-23T05:44:53.121Z,1023.97
2022-09-23T05:45:53.139Z,1023.89
2022-09-23T05:46:53.311Z,1023.93
2022-09-23T05:47:53.127Z,1023.92
2022-09-23T05:48:53.178Z,1023.93
2022-09-23T05:50:00.100Z,1023.95
2022-09-23T05:50:53.124Z,1023.9
2022-09-23T05:51:53.128Z,1023.91
2022-09-23T05:52:53.123Z,1023.94
2022-09-23T05:53:53.151Z,1023.92
2022-09-23T05:54:53.125Z,1023.85
2022-09-23T05:55:53.177Z,1023.89
2022-09-23T05:56:53.152Z,1023.88
2022-09-23T05:57:53.123Z,1023.85
2022-09-23T05:58:53.128Z,1023.84
2022-09-23T05:59:53.135Z,1023.86
2022-09-23T06:00:53.126Z,1023.79
2022-09-23T06:01:56.365Z,1023.83
2022-09-23T06:02:53.177Z,1023.83
2022-09-23T06:03:53.133Z,1023.8
2022-09-23T06:04:53.126Z,1023.79
2022-09-23T06:05:53.130Z,1023.77
2022-09-23T06:06:53.138Z,1023.78
2022-09-23T06:07:53.127Z,1023.74
2022-09-23T06:08:53.121Z,1023.77
2022-09-23T06:09:53.126Z,1023.73
2022-09-23T06:10:54.569Z,1023.76
2022-09-23T06:11:53.150Z,1023.8
2022-09-23T06:12:53.121Z,1023.76
2022-09-23T06:13:53.126Z,1023.69
2022-09-23T06:14:53.124Z,1023.73
2022-09-23T06:15:53.177Z,1023.68
2022-09-23T06:16:53.145Z,1023.69
2022-09-23T06:17:53.130Z,1023.65
2022-09-23T06:18:53.132Z,1023.64
2022-09-23T06:19:53.113Z,1023.62
2022-09-23T06:20:53.116Z,1023.61
2022-09-23T06:21:53.132Z,1023.58
2022-09-23T06:22:55.194Z,1023.61
2022-09-23T06:23:55.198Z,1023.58
2022-09-23T06:24:53.114Z,1023.58
2022-09-23T06:25:53.122Z,1023.52
2022-09-23T06:26:53.134Z,1023.51
2022-09-23T06:27:53.225Z,1023.53
2022-09-23T06:28:53.148Z,1023.51
2022-09-23T06:29:53.125Z,1023.5
2022-09-23T06:30:53.172Z,1023.51
2022-09-23T06:31:53.175Z,1023.49
2022-09-23T06:32:53.122Z,1023.45
2022-09-23T06:34:01.795Z,1023.49
2022-09-23T06:34:53.122Z,1023.46
2022-09-23T06:35:58.987Z,1023.4
2022-09-23T06:36:53.140Z,1023.48
2022-09-23T06:37:53.117Z,1023.45
2022-09-23T06:38:53.118Z,1023.41
2022-09-23T06:39:53.131Z,1023.39
2022-09-23T06:40:53.210Z,1023.41
2022-09-23T06:41:53.143Z,1023.37
2022-09-23T06:42:53.134Z,1023.36
2022-09-23T06:43:53.131Z,1023.4
2022-09-23T06:44:53.123Z,1023.35
2022-09-23T06:45:53.132Z,1023.37
2022-09-23T06:46:53.229Z,1023.35
2022-09-23T06:47:53.121Z,1023.39
2022-09-23T06:48:53.129Z,1023.28
2022-09-23T06:49:53.136Z,1023.3
2022-09-23T06:50:53.127Z,1023.26
2022-09-23T06:51:53.127Z,1023.29
2022-09-23T06:52:53.117Z,1023.21
2022-09-23T06:53:53.134Z,1023.23
2022-09-23T06:54:53.127Z,1023.25
2022-09-23T06:55:53.129Z,1023.19
2022-09-23T06:56:53.135Z,1023.2
2022-09-23T06:57:53.129Z,1023.18
2022-09-23T06:58:53.126Z,1023.19
2022-09-23T06:59:53.128Z,1023.16
2022-09-23T07:00:53.128Z,1023.16
2022-09-23T07:01:53.247Z,1023.16
2022-09-23T07:02:53.158Z,1023.13
2022-09-23T07:03:53.121Z,1023.14
2022-09-23T07:04:53.123Z,1023.11
2022-09-23T07:05:53.121Z,1023.1
2022-09-23T07:06:53.136Z,1023.06
2022-09-23T07:07:53.129Z,1023.08
2022-09-23T07:08:53.126Z,1023.04
2022-09-23T07:09:53.123Z,1023
2022-09-23T07:10:53.124Z,1023.01
2022-09-23T07:11:53.141Z,1023.03
2022-09-23T07:12:53.130Z,1022.99
2022-09-23T07:13:53.134Z,1022.94
2022-09-23T07:14:53.124Z,1022.98
2022-09-23T07:15:53.175Z,1022.97
2022-09-23T07:16:53.146Z,1022.95
2022-09-23T07:17:53.130Z,1022.94
2022-09-23T07:18:53.274Z,1022.93
2022-09-23T07:19:53.127Z,1022.94
2022-09-23T07:20:53.121Z,1022.95
2022-09-23T07:21:53.146Z,1022.88
2022-09-23T07:22:53.116Z,1022.88
2022-09-23T07:23:53.133Z,1022.89
2022-09-23T07:24:53.130Z,1022.85
2022-09-23T07:25:53.118Z,1022.87
2022-09-23T07:26:53.138Z,1022.87
2022-09-23T07:27:53.115Z,1022.82
2022-09-23T07:28:53.127Z,1022.79
2022-09-23T07:29:53.126Z,1022.76
2022-09-23T07:30:59.052Z,1022.76
2022-09-23T07:31:55.623Z,1022.77
2022-09-23T07:32:53.211Z,1022.76
2022-09-23T07:33:53.118Z,1022.78
2022-09-23T07:34:53.119Z,1022.75
2022-09-23T07:35:53.118Z,1022.78
2022-09-23T07:36:53.137Z,1022.71
2022-09-23T07:37:53.145Z,1022.72
2022-09-23T07:38:53.121Z,1022.71
2022-09-23T07:39:53.114Z,1022.66
2022-09-23T07:40:53.248Z,1022.66
2022-09-23T07:41:53.283Z,1022.66
2022-09-23T07:42:53.120Z,1022.64
2022-09-23T07:43:53.117Z,1022.65
2022-09-23T07:44:53.125Z,1022.62
2022-09-23T07:45:53.177Z,1022.66
2022-09-23T07:46:53.176Z,1022.63
2022-09-23T07:47:53.116Z,1022.59
2022-09-23T07:48:53.113Z,1022.64
2022-09-23T07:49:53.190Z,1022.64
2022-09-23T07:50:53.129Z,1022.58
2022-09-23T07:51:53.129Z,1022.58
2022-09-23T07:52:53.123Z,1022.62
2022-09-23T07:53:53.123Z,1022.55
2022-09-23T07:54:53.133Z,1022.58
2022-09-23T07:55:53.121Z,1022.52
2022-09-23T07:56:53.169Z,1022.5
2022-09-23T07:57:53.130Z,1022.55
2022-09-23T07:58:53.125Z,1022.5
2022-09-23T07:59:53.128Z,1022.5
2022-09-23T08:00:53.126Z,1022.52
2022-09-23T08:01:53.184Z,1022.5
2022-09-23T08:02:53.326Z,1022.49
2022-09-23T08:03:53.127Z,1022.55
2022-09-23T08:04:53.133Z,1022.53
2022-09-23T08:05:53.121Z,1022.46
2022-09-23T08:06:53.137Z,1022.45
2022-09-23T08:07:53.128Z,1022.44
2022-09-23T08:08:53.484Z,1022.49
2022-09-23T08:09:53.120Z,1022.41
2022-09-23T08:10:53.124Z,1022.42
2022-09-23T08:11:53.143Z,1022.37
2022-09-23T08:12:53.129Z,1022.37
2022-09-23T08:13:53.122Z,1022.34
2022-09-23T08:14:53.127Z,1022.36
2022-09-23T08:15:55.500Z,1022.43
2022-09-23T08:16:53.152Z,1022.31
2022-09-23T08:17:53.179Z,1022.32
2022-09-23T08:18:53.172Z,1022.32
2022-09-23T08:19:53.127Z,1022.34
2022-09-23T08:20:53.127Z,1022.26
2022-09-23T08:21:53.140Z,1022.56
2022-09-23T08:22:53.162Z,1022.29
2022-09-23T08:23:53.134Z,1021.73
2022-09-23T08:24:55.737Z,1021.9
2022-09-23T08:25:53.826Z,1022.34
2022-09-23T08:26:53.142Z,1022.24
2022-09-23T08:27:53.119Z,1022.23
2022-09-23T08:28:53.191Z,1022.26
2022-09-23T08:29:53.128Z,1022.31
2022-09-23T08:30:53.155Z,1022.26
2022-09-23T08:31:53.145Z,1022.31
2022-09-23T08:32:53.124Z,1022.27
2022-09-23T08:33:53.132Z,1022.28
2022-09-23T08:34:53.119Z,1022.26
2022-09-23T08:35:53.125Z,1022.26
2022-09-23T08:36:53.166Z,1022.23
2022-09-23T08:37:53.135Z,1022.31
2022-09-23T08:38:53.128Z,1022.36
2022-09-23T08:39:53.133Z,1022.26
2022-09-23T11:27:08.192Z,1020.48
2022-09-23T11:28:07.014Z,1020.44
2022-09-23T11:29:06.990Z,1020.5
2022-09-23T11:30:27.018Z,1020.5
2022-09-23T11:31:25.284Z,1020.42
2022-09-23T11:32:25.221Z,1020.43
2022-09-23T11:33:25.131Z,1020.43
2022-09-23T11:34:25.157Z,1020.43
2022-09-23T11:35:25.243Z,1020.43
2022-09-23T11:36:25.154Z,1020.42
2022-09-23T11:37:25.199Z,1020.29
2022-09-23T11:38:25.202Z,1020.24
2022-09-23T11:39:25.175Z,1020.22
2022-09-23T11:40:25.338Z,1020.21
2022-09-23T11:41:25.170Z,1020.15
2022-09-23T11:42:25.155Z,1020.17
2022-09-23T11:43:25.172Z,1020.06
2022-09-23T11:44:25.145Z,1020.03
2022-09-23T11:45:25.451Z,1020.08
2022-09-23T11:46:25.267Z,1019.97
2022-09-23T11:47:25.210Z,1020.07
2022-09-23T11:48:25.199Z,1019.96
2022-09-23T11:49:25.138Z,1019.97
2022-09-23T11:50:25.241Z,1019.97
2022-09-23T11:51:25.141Z,1019.9
2022-09-23T11:52:25.182Z,1020.11
2022-09-23T11:53:25.298Z,1019.93
2022-09-23T11:54:25.150Z,1019.84
2022-09-23T11:55:25.168Z,1019.9
2022-09-23T11:56:33.703Z,1019.9
2022-09-23T11:57:25.163Z,1019.78
2022-09-23T11:58:26.047Z,1019.72
2022-09-23T11:59:37.315Z,1019.72
2022-09-23T12:00:25.139Z,1019.63
2022-09-23T12:01:33.313Z,1019.71
2022-09-23T12:02:30.302Z,1019.68
2022-09-23T12:03:33.301Z,1019.75
2022-09-23T12:04:25.583Z,1019.72
2022-09-23T12:05:25.245Z,1019.74
2022-09-23T12:06:25.132Z,1019.73
2022-09-23T12:07:25.149Z,1019.68
2022-09-23T12:08:25.190Z,1019.69
2022-09-23T12:09:47.222Z,1019.66
2022-09-23T12:10:25.166Z,1019.6
2022-09-23T12:11:25.142Z,1019.68
2022-09-23T12:12:27.134Z,1019.72
2022-09-23T12:13:25.504Z,1019.71
2022-09-23T12:14:25.143Z,1019.72
2022-09-23T12:15:25.165Z,1019.64
2022-09-23T12:16:25.175Z,1019.67
2022-09-23T12:17:25.122Z,1019.66
2022-09-23T12:18:25.437Z,1019.6
2022-09-23T12:19:25.136Z,1019.53
2022-09-23T12:20:25.243Z,1019.51
2022-09-23T12:21:48.781Z,1019.51
2022-09-23T12:22:25.170Z,1019.56
2022-09-23T12:23:25.430Z,1019.54
2022-09-23T12:24:25.131Z,1019.54
2022-09-23T12:25:25.138Z,1019.51
2022-09-23T12:26:25.121Z,1019.5
2022-09-23T12:27:25.135Z,1019.46
2022-09-23T12:28:25.119Z,1019.49
2022-09-23T12:29:25.144Z,1019.54
2022-09-23T12:30:25.524Z,1019.51
2022-09-23T12:31:25.124Z,1019.53
2022-09-23T12:32:25.123Z,1019.5
2022-09-23T12:33:25.129Z,1019.45
2022-09-23T12:34:25.126Z,1019.45
2022-09-23T12:35:25.650Z,1019.44
2022-09-23T12:36:25.139Z,1019.45
2022-09-23T12:37:25.138Z,1019.41
2022-09-23T12:38:25.136Z,1019.42
2022-09-23T12:39:25.140Z,1019.38
2022-09-23T12:40:25.199Z,1019.31
2022-09-23T12:41:25.242Z,1019.27
2022-09-23T12:42:30.168Z,1019.18
2022-09-23T12:43:25.148Z,1019.22
2022-09-23T12:44:25.142Z,1019.21
2022-09-23T12:45:25.162Z,1019.19
2022-09-23T12:46:25.219Z,1019.22
2022-09-23T12:47:25.154Z,1019.22
2022-09-23T12:48:25.140Z,1019.14
2022-09-23T12:49:25.147Z,1019.18
2022-09-23T12:50:25.224Z,1019.15
2022-09-23T12:51:25.147Z,1019.12
2022-09-23T12:52:25.154Z,1019.2
2022-09-23T12:53:25.140Z,1019.23
2022-09-23T12:54:25.156Z,1019.27
2022-09-23T12:55:25.151Z,1019.14
2022-09-23T12:56:25.155Z,1019.16
2022-09-23T12:57:25.154Z,1019.14
2022-09-23T12:58:25.143Z,1019.22
2022-09-23T12:59:25.136Z,1019.16
2022-09-23T13:00:25.135Z,1019.13
2022-09-23T13:01:25.248Z,1019.08
2022-09-23T13:02:25.319Z,1019.05
2022-09-23T13:03:25.147Z,1018.99
2022-09-23T13:04:25.130Z,1019.07
2022-09-23T13:05:25.152Z,1019.13
2022-09-23T13:06:25.148Z,1019.09
2022-09-23T13:07:25.154Z,1019.03
2022-09-23T13:08:25.176Z,1019.05
2022-09-23T13:09:25.146Z,1019
2022-09-23T13:10:25.148Z,1018.99
2022-09-23T13:11:25.155Z,1019.01
2022-09-23T13:12:25.142Z,1019.04
2022-09-23T13:13:25.147Z,1018.9
2022-09-23T13:14:27.427Z,1018.93
2022-09-23T13:15:25.149Z,1018.89
2022-09-23T13:16:25.204Z,1018.86
2022-09-23T13:17:25.133Z,1018.89
2022-09-23T13:18:25.141Z,1018.85
2022-09-23T13:19:25.157Z,1018.87
2022-09-23T13:20:25.146Z,1018.83
2022-09-23T13:21:25.152Z,1018.87
2022-09-23T13:22:25.152Z,1018.83
2022-09-23T13:23:25.209Z,1018.84
2022-09-23T13:24:25.151Z,1018.87
2022-09-23T13:25:25.145Z,1018.8
2022-09-23T13:26:25.145Z,1018.81
2022-09-23T13:27:25.162Z,1018.77
2022-09-23T13:28:25.157Z,1018.79
2022-09-23T13:29:25.148Z,1018.84
2022-09-23T13:30:26.166Z,1018.76
2022-09-23T13:31:25.195Z,1018.75
2022-09-23T13:32:25.125Z,1018.82
2022-09-23T13:33:25.134Z,1018.75
2022-09-23T13:34:25.124Z,1018.71
2022-09-23T13:35:25.144Z,1018.72
2022-09-23T13:36:25.126Z,1018.73
2022-09-23T13:37:25.127Z,1018.72
2022-09-23T13:38:25.128Z,1018.76
2022-09-23T13:39:25.253Z,1018.75
2022-09-23T13:40:25.156Z,1018.77
2022-09-23T13:41:25.133Z,1018.73
2022-09-23T13:42:25.142Z,1018.75
2022-09-23T13:43:25.222Z,1018.69
2022-09-23T13:44:25.123Z,1018.68
2022-09-23T13:45:25.247Z,1018.73
2022-09-23T13:46:25.149Z,1018.82
2022-09-23T13:47:25.148Z,1018.77
2022-09-23T13:48:25.135Z,1018.79
2022-09-23T13:49:25.139Z,1018.75
2022-09-23T13:50:25.142Z,1018.75
2022-09-23T13:51:25.155Z,1018.74
2022-09-23T13:52:25.159Z,1018.81
2022-09-23T13:53:25.149Z,1018.73
2022-09-23T13:54:25.141Z,1018.86
2022-09-23T13:55:25.160Z,1018.69
2022-09-23T13:56:25.146Z,1018.69
2022-09-23T13:57:25.155Z,1018.62
2022-09-23T13:58:25.149Z,1018.71
2022-09-23T13:59:25.146Z,1018.68
2022-09-23T14:00:25.268Z,1018.66
2022-09-23T14:01:25.297Z,1018.67
2022-09-23T14:02:25.243Z,1018.65
2022-09-23T14:03:25.152Z,1018.64
2022-09-23T14:04:25.149Z,1018.61
2022-09-23T14:05:25.166Z,1018.6
2022-09-23T14:06:25.145Z,1018.61
2022-09-23T14:07:25.151Z,1018.58
2022-09-23T14:08:25.153Z,1018.61
2022-09-23T14:09:25.145Z,1018.61
2022-09-23T14:10:25.139Z,1018.64
2022-09-23T14:11:25.152Z,1018.64
2022-09-23T14:12:25.163Z,1018.6
2022-09-23T14:13:25.951Z,1018.57
2022-09-23T14:14:25.145Z,1018.59
2022-09-23T14:15:25.175Z,1018.53
2022-09-23T14:16:25.301Z,1018.51
2022-09-23T14:17:25.142Z,1018.53
2022-09-23T14:18:25.145Z,1018.42
2022-09-23T14:19:25.157Z,1018.51
2022-09-23T14:20:25.149Z,1018.46
2022-09-23T14:21:25.150Z,1018.44
2022-09-23T14:22:25.224Z,1018.37
2022-09-23T14:23:25.150Z,1018.33
2022-09-23T14:24:25.153Z,1018.39
2022-09-23T14:25:25.172Z,1018.38
2022-09-23T14:26:25.156Z,1018.38
2022-09-23T14:27:25.176Z,1018.39
2022-09-23T14:28:25.149Z,1018.29
2022-09-23T14:29:25.152Z,1018.3
2022-09-23T14:30:25.143Z,1018.24
2022-09-23T14:31:25.190Z,1018.24
2022-09-23T14:32:25.188Z,1018.2
2022-09-23T14:33:25.153Z,1018.19
2022-09-23T14:34:25.162Z,1018.23
2022-09-23T14:35:25.163Z,1018.2
2022-09-23T14:36:25.151Z,1018.19
2022-09-23T14:37:25.155Z,1018.16
2022-09-23T14:38:25.150Z,1018.21
2022-09-23T14:39:25.149Z,1018.2
2022-09-23T14:40:25.261Z,1018.24
2022-09-23T14:41:25.165Z,1018.17
2022-09-23T14:42:25.181Z,1018.22
2022-09-23T14:43:25.161Z,1018.16
2022-09-23T14:44:25.169Z,1018.27
2022-09-23T14:45:25.278Z,1018.16
2022-09-23T14:46:25.140Z,1018.2
2022-09-23T14:47:25.137Z,1018.17
2022-09-23T14:48:25.140Z,1018.31
2022-09-23T14:49:25.139Z,1018.31
2022-09-23T14:50:25.183Z,1018.25
2022-09-23T14:51:25.136Z,1018.28
2022-09-23T14:52:25.137Z,1018.22
2022-09-23T14:53:25.142Z,1018.23
2022-09-23T14:54:25.140Z,1018.29
2022-09-23T14:55:25.160Z,1018.29
2022-09-23T14:56:25.385Z,1018.35
2022-09-23T14:57:25.160Z,1018.28
2022-09-23T14:58:25.164Z,1018.19